SBI436 URWW-UWKD
Flight info
| Callsign | SBI436 |
|---|---|
| Flight time | N/A |
| Altitude | 35000 |
| Route | RODUN1E RODUN R807 UROBO P135 DAFOS T789 SONUM SONUM1R |
| Aircraft | A320/M-SDE3FGHIRWY/LB1 |
Departure
| Time | 2026-05-07 17:23 |
|---|---|
| Airport | Volgograd International Airport (URWW) |
Arrival
| Time | N/A |
|---|---|
| Airport | Kazan International Airport (UWKD) |
| Time | Latitude | Longitude | Altitude | Speed | Heading |
|---|---|---|---|---|---|
| 2026-05-07 16:56 | 48.79079 | 44.35502 | 486 ft | 0 kts | 340° |
| 2026-05-07 17:09 | 48.79066 | 44.35509 | 477 ft | 2 kts | 340° |
| 2026-05-07 17:09 | 48.79050 | 44.35517 | 480 ft | 2 kts | 319° |
| 2026-05-07 17:09 | 48.79042 | 44.35530 | 479 ft | 0 kts | 272° |
| 2026-05-07 17:10 | 48.79042 | 44.35542 | 479 ft | 2 kts | 265° |
| 2026-05-07 17:10 | 48.79041 | 44.35567 | 478 ft | 2 kts | 282° |
| 2026-05-07 17:10 | 48.79037 | 44.35592 | 478 ft | 2 kts | 270° |
| 2026-05-07 17:10 | 48.79036 | 44.35600 | 478 ft | 0 kts | 252° |
| 2026-05-07 17:12 | 48.79036 | 44.35599 | 478 ft | 1 kts | 252° |
| 2026-05-07 17:12 | 48.79023 | 44.35535 | 478 ft | 12 kts | 252° |
| 2026-05-07 17:13 | 48.78984 | 44.35370 | 485 ft | 21 kts | 250° |
| 2026-05-07 17:13 | 48.78933 | 44.35171 | 479 ft | 18 kts | 249° |
| 2026-05-07 17:13 | 48.78839 | 44.35133 | 480 ft | 13 kts | 162° |
| 2026-05-07 17:13 | 48.78808 | 44.35149 | 483 ft | 0 kts | 162° |
| 2026-05-07 17:14 | 48.78788 | 44.35158 | 483 ft | 9 kts | 162° |
| 2026-05-07 17:14 | 48.78745 | 44.35180 | 481 ft | 5 kts | 161° |
| 2026-05-07 17:14 | 48.78735 | 44.35185 | 482 ft | 0 kts | 161° |
| 2026-05-07 17:16 | 48.78728 | 44.35188 | 481 ft | 7 kts | 161° |
| 2026-05-07 17:17 | 48.78686 | 44.35210 | 481 ft | 0 kts | 161° |
| 2026-05-07 17:20 | 48.78670 | 44.35218 | 483 ft | 11 kts | 161° |
| 2026-05-07 17:21 | 48.78576 | 44.35243 | 486 ft | 14 kts | 199° |
| 2026-05-07 17:21 | 48.78538 | 44.35172 | 482 ft | 0 kts | 244° |
| 2026-05-07 17:21 | 48.78537 | 44.35171 | 482 ft | 0 kts | 244° |
| 2026-05-07 17:22 | 48.78537 | 44.35170 | 482 ft | 0 kts | 244° |
| 2026-05-07 17:22 | 48.78537 | 44.35169 | 482 ft | 0 kts | 244° |
| 2026-05-07 17:22 | 48.78536 | 44.35166 | 482 ft | 0 kts | 244° |
| 2026-05-07 17:22 | 48.78533 | 44.35157 | 480 ft | 12 kts | 244° |
| 2026-05-07 17:23 | 48.78369 | 44.34641 | 472 ft | 93 kts | 244° |
| 2026-05-07 17:23 | 48.77995 | 44.33458 | 461 ft | 154 kts | 244° |
| 2026-05-07 17:23 | 48.77514 | 44.31921 | 829 ft | 173 kts | 245° |
| 2026-05-07 17:23 | 48.77007 | 44.30250 | 1453 ft | 174 kts | 247° |
| 2026-05-07 17:24 | 48.76477 | 44.28579 | 2021 ft | 182 kts | 247° |
| 2026-05-07 17:24 | 48.75891 | 44.26756 | 2207 ft | 203 kts | 246° |
| 2026-05-07 17:24 | 48.75242 | 44.24739 | 2548 ft | 226 kts | 246° |
| 2026-05-07 17:24 | 48.74596 | 44.22434 | 3008 ft | 249 kts | 260° |
| 2026-05-07 17:25 | 48.74789 | 44.19820 | 3729 ft | 257 kts | 298° |
| 2026-05-07 17:25 | 48.76003 | 44.17877 | 4616 ft | 260 kts | 334° |
| 2026-05-07 17:25 | 48.77761 | 44.17378 | 5565 ft | 263 kts | 8° |
| 2026-05-07 17:25 | 48.79417 | 44.18468 | 6558 ft | 266 kts | 35° |
| 2026-05-07 17:26 | 48.80815 | 44.20351 | 7562 ft | 268 kts | 43° |
| 2026-05-07 17:26 | 48.82147 | 44.22355 | 8529 ft | 271 kts | 43° |
| 2026-05-07 17:26 | 48.83481 | 44.24365 | 9473 ft | 274 kts | 43° |
| 2026-05-07 17:26 | 48.84847 | 44.26424 | 10298 ft | 281 kts | 42° |
| 2026-05-07 17:27 | 48.86400 | 44.28420 | 10632 ft | 304 kts | 35° |
| 2026-05-07 17:27 | 48.88191 | 44.30344 | 10898 ft | 327 kts | 32° |
| 2026-05-07 17:27 | 48.90138 | 44.32286 | 11099 ft | 350 kts | 32° |
| 2026-05-07 17:27 | 48.92242 | 44.34350 | 11398 ft | 367 kts | 32° |
| 2026-05-07 17:28 | 48.94405 | 44.36503 | 12031 ft | 373 kts | 32° |
| 2026-05-07 17:28 | 48.96579 | 44.38717 | 12745 ft | 377 kts | 33° |
| 2026-05-07 17:28 | 48.98753 | 44.40975 | 13452 ft | 380 kts | 33° |
| 2026-05-07 17:28 | 49.00939 | 44.43277 | 14100 ft | 383 kts | 34° |
| 2026-05-07 17:29 | 49.03134 | 44.45604 | 14684 ft | 387 kts | 34° |
| 2026-05-07 17:29 | 49.05355 | 44.47960 | 15241 ft | 391 kts | 34° |
| 2026-05-07 17:29 | 49.07603 | 44.50340 | 15807 ft | 395 kts | 34° |
| 2026-05-07 17:29 | 49.09872 | 44.52737 | 16364 ft | 398 kts | 34° |
| 2026-05-07 17:30 | 49.12156 | 44.55146 | 16829 ft | 401 kts | 34° |
| 2026-05-07 17:30 | 49.14456 | 44.57570 | 16952 ft | 401 kts | 34° |
| 2026-05-07 17:30 | 49.16754 | 44.59998 | 16973 ft | 401 kts | 34° |
| 2026-05-07 17:30 | 49.19046 | 44.62425 | 16968 ft | 401 kts | 34° |
| 2026-05-07 17:31 | 49.21338 | 44.64856 | 16970 ft | 401 kts | 34° |
| 2026-05-07 17:31 | 49.23635 | 44.67296 | 16972 ft | 402 kts | 34° |
| 2026-05-07 17:31 | 49.25837 | 44.69638 | 16967 ft | 402 kts | 34° |
| 2026-05-07 17:32 | 49.27525 | 44.71435 | 16963 ft | 402 kts | 34° |
| 2026-05-07 17:32 | 49.29832 | 44.73897 | 16964 ft | 402 kts | 34° |
| 2026-05-07 17:33 | 49.32131 | 44.76354 | 16964 ft | 402 kts | 34° |
| 2026-05-07 17:33 | 49.33996 | 44.78345 | 16965 ft | 402 kts | 34° |
| 2026-05-07 17:34 | 49.34326 | 44.78699 | 16964 ft | 402 kts | 34° |
| 2026-05-07 17:34 | 49.36620 | 44.81151 | 16961 ft | 402 kts | 34° |
| 2026-05-07 17:34 | 49.38915 | 44.83607 | 16961 ft | 402 kts | 34° |
| 2026-05-07 17:34 | 49.41205 | 44.86062 | 16961 ft | 402 kts | 34° |
| 2026-05-07 17:35 | 49.43502 | 44.88525 | 16958 ft | 402 kts | 34° |
| 2026-05-07 17:35 | 49.45797 | 44.90988 | 16958 ft | 402 kts | 34° |
| 2026-05-07 17:35 | 49.48089 | 44.93452 | 16959 ft | 402 kts | 34° |
| 2026-05-07 17:36 | 49.54581 | 45.00459 | 16956 ft | 402 kts | 34° |
| 2026-05-07 17:36 | 49.56878 | 45.02946 | 16956 ft | 402 kts | 34° |
| 2026-05-07 17:36 | 49.58025 | 45.04188 | 16962 ft | 402 kts | 34° |
| 2026-05-07 17:37 | 49.60034 | 45.06361 | 16961 ft | 402 kts | 34° |
| 2026-05-07 17:37 | 49.62326 | 45.08839 | 16958 ft | 402 kts | 34° |